createdAt,value
2019-02-23T00:00:12.745Z,987.72
2019-02-23T00:01:11.953Z,987.73
2019-02-23T00:02:11.985Z,987.72
2019-02-23T00:03:12.029Z,987.72
2019-02-23T00:04:12.061Z,987.73
2019-02-23T00:05:12.114Z,987.71
2019-02-23T00:06:12.169Z,987.79
2019-02-23T00:07:12.253Z,987.79
2019-02-23T00:08:12.235Z,987.78
2019-02-23T00:09:12.271Z,987.71
2019-02-23T00:10:12.322Z,987.69
2019-02-23T00:11:12.382Z,987.74
2019-02-23T00:12:12.401Z,987.70
2019-02-23T00:13:12.448Z,987.72
2019-02-23T00:14:12.495Z,987.67
2019-02-23T00:15:12.532Z,987.71
2019-02-23T00:16:12.623Z,987.70
2019-02-23T00:17:12.624Z,987.69
2019-02-23T00:18:12.820Z,987.68
2019-02-23T00:19:24.000Z,987.69
2019-02-23T00:20:12.749Z,987.64
2019-02-23T00:21:12.845Z,987.61
2019-02-23T00:22:12.830Z,987.64
2019-02-23T00:23:12.873Z,987.64
2019-02-23T00:24:12.914Z,987.63
2019-02-23T00:25:12.959Z,987.62
2019-02-23T00:26:13.034Z,987.62
2019-02-23T00:27:13.059Z,987.61
2019-02-23T00:28:13.091Z,987.60
2019-02-23T00:29:13.124Z,987.56
2019-02-23T00:30:13.170Z,987.59
2019-02-23T00:31:13.211Z,987.57
2019-02-23T00:32:13.286Z,987.62
2019-02-23T00:33:13.293Z,987.61
2019-02-23T00:34:13.332Z,987.59
2019-02-23T00:35:13.393Z,987.61
2019-02-23T00:36:13.416Z,987.59
2019-02-23T00:37:13.483Z,987.57
2019-02-23T00:38:13.516Z,987.58
2019-02-23T00:39:13.545Z,987.57
2019-02-23T00:40:13.592Z,987.56
2019-02-23T00:41:13.629Z,987.54
2019-02-23T00:42:13.690Z,987.54
2019-02-23T00:43:13.721Z,987.48
2019-02-23T00:44:13.766Z,987.51
2019-02-23T00:45:13.802Z,987.59
2019-02-23T00:46:13.843Z,987.57
2019-02-23T00:47:13.927Z,987.59
2019-02-23T00:48:13.934Z,987.59
2019-02-23T00:49:13.970Z,987.60
2019-02-23T00:50:14.073Z,987.60
2019-02-23T00:51:14.066Z,987.59
2019-02-23T00:52:14.129Z,987.50
2019-02-23T00:53:14.186Z,987.54
2019-02-23T00:54:14.178Z,987.50
2019-02-23T00:55:14.226Z,987.55
2019-02-23T00:56:14.264Z,987.59
2019-02-23T00:57:14.308Z,987.59
2019-02-23T00:58:14.372Z,987.55
2019-02-23T00:59:14.446Z,987.61
2019-02-23T01:00:14.438Z,987.60
2019-02-23T01:01:14.473Z,987.61
2019-02-23T01:02:14.517Z,987.62
2019-02-23T01:03:14.580Z,987.63
2019-02-23T01:04:14.602Z,987.61
2019-02-23T01:05:14.647Z,987.70
2019-02-23T01:06:14.688Z,987.67
2019-02-23T01:07:14.729Z,987.66
2019-02-23T01:08:14.795Z,987.66
2019-02-23T01:09:14.824Z,987.68
2019-02-23T01:10:14.857Z,987.63
2019-02-23T01:11:14.905Z,987.63
2019-02-23T01:12:14.951Z,987.67
2019-02-23T01:13:15.001Z,987.63
2019-02-23T01:14:15.043Z,987.67
2019-02-23T01:15:15.088Z,987.71
2019-02-23T01:16:15.110Z,987.64
2019-02-23T01:17:15.219Z,987.68
2019-02-23T01:18:15.199Z,987.70
2019-02-23T01:19:15.258Z,987.73
2019-02-23T01:20:15.283Z,987.77
2019-02-23T01:21:15.319Z,987.76
2019-02-23T01:22:15.367Z,987.76
2019-02-23T01:23:15.403Z,987.71
2019-02-23T01:24:15.466Z,987.76
2019-02-23T01:25:15.489Z,987.75
2019-02-23T01:26:15.533Z,987.81
2019-02-23T01:27:15.573Z,987.78
2019-02-23T01:28:15.616Z,987.83
2019-02-23T01:29:15.678Z,987.85
2019-02-23T01:30:15.715Z,987.87
2019-02-23T01:31:15.757Z,987.87
2019-02-23T01:32:15.779Z,987.86
2019-02-23T01:33:15.826Z,987.88
2019-02-23T01:34:15.891Z,987.90
2019-02-23T01:35:15.910Z,987.93
2019-02-23T01:36:15.952Z,987.92
2019-02-23T01:37:15.996Z,987.96
2019-02-23T01:38:16.038Z,987.93
2019-02-23T01:39:16.100Z,987.95
2019-02-23T01:40:16.135Z,987.96
2019-02-23T01:41:16.233Z,987.88
2019-02-23T01:42:16.295Z,987.96
2019-02-23T01:43:16.249Z,987.94
2019-02-23T01:44:16.305Z,987.94
2019-02-23T01:45:16.333Z,987.94
2019-02-23T01:46:16.399Z,987.95
2019-02-23T01:47:16.425Z,987.91
2019-02-23T01:48:16.455Z,987.89
2019-02-23T01:49:16.513Z,987.88
2019-02-23T01:50:16.542Z,987.90
2019-02-23T01:51:16.606Z,987.87
2019-02-23T01:52:16.626Z,987.92
2019-02-23T01:53:16.666Z,987.92
2019-02-23T01:54:16.709Z,987.95
2019-02-23T01:55:16.777Z,987.94
2019-02-23T01:56:16.799Z,988.01
2019-02-23T01:57:16.844Z,987.97
2019-02-23T01:58:16.877Z,987.97
2019-02-23T01:59:16.921Z,987.94
2019-02-23T02:00:16.987Z,987.97
2019-02-23T02:01:17.003Z,987.91
2019-02-23T02:02:17.043Z,987.95
2019-02-23T02:03:17.094Z,987.94
2019-02-23T02:04:17.129Z,987.87
2019-02-23T02:05:17.196Z,987.92
2019-02-23T02:06:17.231Z,987.91
2019-02-23T02:07:17.254Z,987.93
2019-02-23T02:08:17.298Z,987.95
2019-02-23T02:09:17.340Z,987.93
2019-02-23T02:10:17.408Z,987.93
2019-02-23T02:11:17.443Z,987.93
2019-02-23T02:12:17.485Z,988.00
2019-02-23T02:13:17.513Z,988.00
2019-02-23T02:14:17.554Z,988.01
2019-02-23T02:15:17.593Z,988.03
2019-02-23T02:16:17.648Z,988.05
2019-02-23T02:17:17.674Z,988.06
2019-02-23T02:18:17.724Z,988.07
2019-02-23T02:19:17.756Z,988.11
2019-02-23T02:20:17.799Z,988.10
2019-02-23T02:21:17.860Z,988.09
2019-02-23T02:22:17.924Z,988.10
2019-02-23T02:23:17.925Z,988.09
2019-02-23T02:24:17.964Z,988.08
2019-02-23T02:25:18.009Z,988.09
2019-02-23T02:26:18.069Z,988.13
2019-02-23T02:27:18.108Z,988.14
2019-02-23T02:28:18.137Z,988.14
2019-02-23T02:29:18.201Z,988.14
2019-02-23T02:30:18.262Z,988.18
2019-02-23T02:31:18.262Z,988.20
2019-02-23T02:32:18.326Z,988.21
2019-02-23T02:33:18.348Z,988.15
2019-02-23T02:34:18.401Z,988.11
2019-02-23T02:35:18.426Z,988.14
2019-02-23T02:36:18.482Z,988.09
2019-02-23T02:37:18.530Z,988.11
2019-02-23T02:38:18.552Z,988.12
2019-02-23T02:39:18.600Z,988.10
2019-02-23T02:40:18.662Z,988.10
2019-02-23T02:41:18.681Z,988.11
2019-02-23T02:42:18.750Z,988.13
2019-02-23T02:43:18.811Z,988.09
2019-02-23T02:44:18.811Z,988.12
2019-02-23T02:45:18.843Z,988.10
2019-02-23T02:46:18.883Z,988.09
2019-02-23T02:47:18.946Z,988.09
2019-02-23T02:48:18.994Z,988.07
2019-02-23T02:49:19.021Z,988.08
2019-02-23T02:50:24.235Z,988.11
2019-02-23T02:51:19.097Z,988.12
2019-02-23T02:52:19.133Z,988.13
2019-02-23T02:53:19.197Z,988.10
2019-02-23T02:54:19.215Z,988.11
2019-02-23T02:55:19.264Z,988.13
2019-02-23T02:56:19.299Z,988.08
2019-02-23T02:57:19.384Z,988.11
2019-02-23T02:58:19.408Z,988.13
2019-02-23T02:59:19.429Z,988.10
2019-02-23T03:00:19.463Z,988.09
2019-02-23T03:01:19.508Z,988.10
2019-02-23T03:02:19.579Z,988.10
2019-02-23T03:03:19.609Z,988.09
2019-02-23T03:04:19.657Z,988.07
2019-02-23T03:05:19.679Z,988.12
2019-02-23T03:06:19.717Z,988.06
2019-02-23T03:07:19.763Z,988.10
2019-02-23T03:08:19.813Z,988.08
2019-02-23T03:09:19.839Z,988.07
2019-02-23T03:10:19.899Z,988.08
2019-02-23T03:11:19.930Z,988.05
2019-02-23T03:12:19.967Z,988.04
2019-02-23T03:13:20.021Z,987.99
2019-02-23T03:14:20.056Z,987.98
2019-02-23T03:15:20.103Z,987.97
2019-02-23T03:16:20.131Z,987.96
2019-02-23T03:17:20.178Z,987.98
2019-02-23T03:18:20.267Z,987.95
2019-02-23T03:19:20.253Z,987.95
2019-02-23T03:20:20.297Z,987.90
2019-02-23T03:21:20.338Z,987.87
2019-02-23T03:22:20.377Z,987.87
2019-02-23T03:23:20.454Z,987.85
2019-02-23T03:24:20.460Z,987.91
2019-02-23T03:25:20.499Z,987.91
2019-02-23T03:26:20.543Z,987.91
2019-02-23T03:27:20.588Z,987.90
2019-02-23T03:28:20.663Z,987.88
2019-02-23T03:29:20.669Z,987.88
2019-02-23T03:30:20.708Z,987.86
2019-02-23T03:31:20.751Z,987.85
2019-02-23T03:32:20.792Z,987.89
2019-02-23T03:33:20.850Z,987.89
2019-02-23T03:34:20.891Z,987.91
2019-02-23T03:35:20.921Z,987.94
2019-02-23T03:36:20.957Z,988.00
2019-02-23T03:37:20.998Z,988.01
2019-02-23T03:38:21.035Z,988.03
2019-02-23T03:39:21.103Z,988.07
2019-02-23T03:40:21.119Z,988.00
2019-02-23T03:41:21.168Z,988.02
2019-02-23T03:42:21.214Z,988.03
2019-02-23T03:43:21.245Z,988.05
2019-02-23T03:44:21.304Z,988.06
2019-02-23T03:45:21.326Z,988.07
2019-02-23T03:46:21.371Z,988.10
2019-02-23T03:47:21.410Z,988.09
2019-02-23T03:48:21.462Z,988.08
2019-02-23T03:49:21.509Z,988.12
2019-02-23T03:50:21.550Z,988.08
2019-02-23T03:51:21.583Z,988.04
2019-02-23T03:52:21.615Z,988.07
2019-02-23T03:53:21.654Z,988.08
2019-02-23T03:54:21.722Z,988.06
2019-02-23T03:55:21.744Z,988.04
2019-02-23T03:56:21.783Z,988.07
2019-02-23T03:57:21.821Z,988.08
2019-02-23T03:58:21.868Z,988.14
2019-02-23T03:59:21.927Z,988.11
2019-02-23T04:00:21.962Z,988.19
2019-02-23T04:01:21.984Z,988.21
2019-02-23T04:02:22.026Z,988.21
2019-02-23T04:03:22.068Z,988.22
2019-02-23T04:04:22.107Z,988.19
2019-02-23T04:05:22.190Z,988.19
2019-02-23T04:06:22.190Z,988.21
2019-02-23T04:07:22.230Z,988.18
2019-02-23T04:08:22.281Z,988.17
2019-02-23T04:09:22.342Z,988.18
2019-02-23T04:10:22.373Z,988.14
2019-02-23T04:11:22.397Z,988.14
2019-02-23T04:12:22.445Z,988.14
2019-02-23T04:13:22.475Z,988.17
2019-02-23T04:14:22.530Z,988.16
2019-02-23T04:15:22.573Z,988.17
2019-02-23T04:16:22.600Z,988.17
2019-02-23T04:17:22.645Z,988.14
2019-02-23T04:18:22.690Z,988.13
2019-02-23T04:19:22.719Z,988.10
2019-02-23T04:20:22.777Z,988.10
2019-02-23T04:21:22.808Z,988.07
2019-02-23T04:22:22.850Z,988.04
2019-02-23T04:23:22.890Z,988.06
2019-02-23T04:24:22.933Z,988.09
2019-02-23T04:25:23.120Z,988.06
2019-02-23T04:26:23.012Z,988.06
2019-02-23T04:27:23.048Z,988.07
2019-02-23T04:28:23.104Z,988.07
2019-02-23T04:29:23.129Z,988.05
2019-02-23T04:30:23.198Z,988.03
2019-02-23T04:31:23.241Z,988.03
2019-02-23T04:32:23.397Z,988.01
2019-02-23T04:33:23.299Z,988.05
2019-02-23T04:34:23.331Z,988.04
2019-02-23T04:35:23.375Z,988.05
2019-02-23T04:36:23.444Z,988.04
2019-02-23T04:37:23.456Z,988.05
2019-02-23T04:38:23.495Z,988.05
2019-02-23T04:39:23.669Z,988.09
2019-02-23T04:40:23.578Z,988.08
2019-02-23T04:41:23.633Z,988.14
2019-02-23T04:42:23.659Z,988.18
2019-02-23T04:43:23.700Z,988.19
2019-02-23T04:44:23.739Z,988.23
2019-02-23T04:45:23.779Z,988.21
2019-02-23T04:46:23.910Z,988.24
2019-02-23T04:47:23.862Z,988.17
2019-02-23T04:48:23.903Z,988.15
2019-02-23T04:49:25.965Z,988.10
2019-02-23T04:50:23.991Z,988.07
2019-02-23T04:51:24.048Z,988.03
2019-02-23T04:52:24.064Z,988.01
2019-02-23T04:53:24.105Z,987.98
2019-02-23T04:54:24.146Z,987.94
2019-02-23T04:55:24.287Z,987.87
2019-02-23T04:56:24.251Z,987.85
2019-02-23T04:57:24.295Z,987.83
2019-02-23T04:58:24.309Z,987.84
2019-02-23T04:59:24.353Z,987.80
2019-02-23T05:00:24.388Z,987.79
2019-02-23T05:01:24.453Z,987.76
2019-02-23T05:02:24.472Z,987.72
2019-02-23T05:03:24.512Z,987.71
2019-02-23T05:04:24.551Z,987.69
2019-02-23T05:05:24.622Z,987.69
2019-02-23T05:06:24.671Z,987.62
2019-02-23T05:07:24.673Z,987.63
2019-02-23T05:08:24.717Z,987.62
2019-02-23T05:09:24.764Z,987.59
2019-02-23T05:10:24.797Z,987.58
2019-02-23T05:11:24.863Z,987.57
2019-02-23T05:12:24.897Z,987.60
2019-02-23T05:13:24.915Z,987.58
2019-02-23T05:14:24.957Z,987.56
2019-02-23T05:15:24.999Z,987.53
2019-02-23T05:16:25.066Z,987.51
2019-02-23T05:17:25.079Z,987.48
2019-02-23T05:18:25.118Z,987.44
2019-02-23T05:19:25.160Z,987.48
2019-02-23T05:20:25.210Z,987.48
2019-02-23T05:21:26.839Z,987.48
2019-02-23T05:22:25.300Z,987.47
2019-02-23T05:23:25.339Z,987.45
2019-02-23T05:24:25.370Z,987.44
2019-02-23T05:25:25.408Z,987.39
2019-02-23T05:26:25.447Z,987.34
2019-02-23T05:27:25.523Z,987.33
2019-02-23T05:28:25.524Z,987.30
2019-02-23T05:29:25.560Z,987.35
2019-02-23T05:30:25.600Z,987.36
2019-02-23T05:31:25.647Z,987.38
2019-02-23T05:32:25.703Z,987.44
2019-02-23T05:33:25.738Z,987.46
2019-02-23T05:34:25.777Z,987.48
2019-02-23T05:35:25.809Z,987.47
2019-02-23T05:36:25.848Z,987.51
2019-02-23T05:37:25.902Z,987.52
2019-02-23T05:38:25.946Z,987.53
2019-02-23T05:39:25.989Z,987.54
2019-02-23T05:40:26.011Z,987.54
2019-02-23T05:41:26.053Z,987.47
2019-02-23T05:42:26.090Z,987.44
2019-02-23T05:43:26.135Z,987.44
2019-02-23T05:44:26.203Z,987.39
2019-02-23T05:45:26.209Z,987.42
2019-02-23T05:46:26.249Z,987.40
2019-02-23T05:47:26.308Z,987.39
2019-02-23T05:48:26.354Z,987.37
2019-02-23T05:49:26.368Z,987.37
2019-02-23T05:50:26.410Z,987.41
2019-02-23T05:51:38.086Z,987.37
2019-02-23T05:52:26.490Z,987.36
2019-02-23T05:53:26.554Z,987.39
2019-02-23T05:54:26.576Z,987.41
2019-02-23T05:55:26.615Z,987.39
2019-02-23T05:56:26.665Z,987.37
2019-02-23T05:57:26.699Z,987.38
2019-02-23T05:58:26.765Z,987.37
2019-02-23T05:59:26.783Z,987.38
2019-02-23T06:00:26.818Z,987.39
2019-02-23T06:01:26.860Z,987.43
2019-02-23T06:02:26.903Z,987.37
2019-02-23T06:03:26.956Z,987.34
2019-02-23T06:04:26.980Z,987.39
2019-02-23T06:05:27.018Z,987.41
2019-02-23T06:06:27.060Z,987.38
2019-02-23T06:07:27.106Z,987.37
2019-02-23T06:08:27.168Z,987.41
2019-02-23T06:09:27.211Z,987.40
2019-02-23T06:10:27.220Z,987.35
2019-02-23T06:11:27.271Z,987.35
2019-02-23T06:12:27.301Z,987.39
2019-02-23T06:13:27.363Z,987.39
2019-02-23T06:14:27.403Z,987.38
2019-02-23T06:15:27.421Z,987.37
2019-02-23T06:16:27.458Z,987.36
2019-02-23T06:17:27.501Z,987.40
2019-02-23T06:18:27.566Z,987.40
2019-02-23T06:19:27.601Z,987.37
2019-02-23T06:20:27.633Z,987.40
2019-02-23T06:21:27.665Z,987.49
2019-02-23T06:22:27.705Z,987.53
2019-02-23T06:23:27.759Z,987.61
2019-02-23T06:24:27.846Z,987.60
2019-02-23T06:25:27.834Z,987.55
2019-02-23T06:26:27.875Z,987.60
2019-02-23T06:27:27.912Z,987.59
2019-02-23T06:28:27.942Z,987.65
2019-02-23T06:29:28.005Z,987.64
2019-02-23T06:30:28.030Z,987.62
2019-02-23T06:31:28.188Z,987.64
2019-02-23T06:32:28.106Z,987.63
2019-02-23T06:33:28.162Z,987.58
2019-02-23T06:34:28.212Z,987.63
2019-02-23T06:35:28.230Z,987.65
2019-02-23T06:36:28.269Z,987.61
2019-02-23T06:37:28.309Z,987.63
2019-02-23T06:38:28.472Z,987.66
2019-02-23T06:39:28.406Z,987.65
2019-02-23T06:40:28.446Z,987.63
2019-02-23T06:41:28.487Z,987.63
2019-02-23T06:42:28.512Z,987.60
2019-02-23T06:43:28.551Z,987.55
2019-02-23T06:44:28.615Z,987.55
2019-02-23T06:45:28.638Z,987.52
2019-02-23T06:46:28.672Z,987.56
2019-02-23T06:47:28.728Z,987.55
2019-02-23T06:48:28.766Z,987.54
2019-02-23T06:49:28.815Z,987.60
2019-02-23T06:50:28.854Z,987.59
2019-02-23T06:51:28.879Z,987.65
2019-02-23T06:52:28.914Z,987.63
2019-02-23T06:53:28.955Z,987.64
2019-02-23T06:54:28.999Z,987.63
2019-02-23T06:55:29.059Z,987.65
2019-02-23T06:56:29.078Z,987.61
2019-02-23T06:57:29.117Z,987.58
2019-02-23T06:58:29.167Z,987.60
2019-02-23T06:59:29.207Z,987.59
2019-02-23T07:00:29.253Z,987.54
2019-02-23T07:01:29.284Z,987.57
2019-02-23T07:02:29.339Z,987.55
2019-02-23T07:03:29.361Z,987.55
2019-02-23T07:04:29.400Z,987.57
2019-02-23T07:05:29.464Z,987.63
2019-02-23T07:06:29.481Z,987.60
2019-02-23T07:07:29.534Z,987.64
2019-02-23T07:08:29.567Z,987.71
2019-02-23T07:09:29.610Z,987.68
2019-02-23T07:10:29.677Z,987.72
2019-02-23T07:11:29.688Z,987.71
2019-02-23T07:12:29.720Z,987.70
2019-02-23T07:13:29.772Z,987.74
2019-02-23T07:14:29.812Z,987.72
2019-02-23T07:15:29.892Z,987.70
2019-02-23T07:16:29.903Z,987.73
2019-02-23T07:17:29.927Z,987.76
2019-02-23T07:18:29.997Z,987.77
2019-02-23T07:19:30.017Z,987.76
2019-02-23T07:20:30.085Z,987.79
2019-02-23T07:21:30.100Z,987.80
2019-02-23T07:22:31.918Z,987.73
2019-02-23T07:23:30.173Z,987.81
2019-02-23T07:24:30.213Z,987.80
2019-02-23T07:25:30.269Z,987.73
2019-02-23T07:26:30.309Z,987.79
2019-02-23T07:27:30.339Z,987.76
2019-02-23T07:28:30.377Z,987.80
2019-02-23T07:29:30.419Z,987.79
2019-02-23T07:30:30.464Z,987.87
2019-02-23T07:31:30.523Z,987.90
2019-02-23T07:32:30.544Z,987.97
2019-02-23T07:33:33.167Z,987.94
2019-02-23T07:34:30.626Z,987.92
2019-02-23T07:35:30.679Z,987.93
2019-02-23T07:36:30.738Z,987.90
2019-02-23T07:37:30.795Z,987.89
2019-02-23T07:38:30.790Z,987.92
2019-02-23T07:39:30.834Z,987.83
2019-02-23T07:40:30.872Z,987.90
2019-02-23T07:41:30.916Z,987.91
2019-02-23T07:42:30.975Z,987.94
2019-02-23T07:43:30.998Z,987.95
2019-02-23T07:44:31.038Z,987.97
2019-02-23T07:45:31.081Z,987.97
2019-02-23T07:46:31.173Z,987.88
2019-02-23T07:47:31.162Z,987.90
2019-02-23T07:48:31.201Z,987.88
2019-02-23T07:49:31.268Z,987.89
2019-02-23T07:50:31.292Z,987.89
2019-02-23T07:51:31.351Z,987.83
2019-02-23T07:52:31.397Z,987.83
2019-02-23T07:53:31.428Z,987.83
2019-02-23T07:54:31.456Z,987.80
2019-02-23T07:55:31.505Z,987.82
2019-02-23T07:56:31.537Z,987.72
2019-02-23T07:57:31.614Z,987.73
2019-02-23T07:58:31.643Z,987.75
2019-02-23T07:59:31.668Z,987.74
2019-02-23T08:00:31.754Z,987.73
2019-02-23T08:01:31.760Z,987.77
2019-02-23T08:02:31.811Z,987.82
2019-02-23T08:03:31.834Z,987.81
2019-02-23T08:04:31.883Z,987.83
2019-02-23T08:05:31.926Z,987.80
2019-02-23T08:06:31.959Z,987.80
2019-02-23T08:07:32.035Z,987.77
2019-02-23T08:08:32.072Z,987.76
2019-02-23T08:09:32.190Z,987.79
2019-02-23T08:10:32.137Z,987.79
2019-02-23T08:11:32.172Z,987.77
2019-02-23T08:12:32.234Z,987.80
2019-02-23T08:13:32.278Z,987.82
2019-02-23T08:14:32.311Z,987.77
2019-02-23T08:15:32.356Z,987.80
2019-02-23T08:16:32.472Z,987.80
2019-02-23T08:17:32.435Z,987.86
2019-02-23T08:18:32.500Z,987.82
2019-02-23T08:19:32.527Z,987.79
2019-02-23T08:20:32.567Z,987.76
2019-02-23T08:21:32.619Z,987.83
2019-02-23T08:22:37.392Z,987.83
2019-02-23T08:23:32.745Z,987.85
2019-02-23T08:24:32.798Z,987.88
2019-02-23T08:25:32.804Z,987.84
2019-02-23T08:26:32.840Z,987.82
2019-02-23T08:27:32.897Z,987.81
2019-02-23T08:28:32.967Z,987.84
2019-02-23T08:29:32.988Z,987.89
2019-02-23T08:30:33.073Z,987.88
2019-02-23T08:31:33.078Z,987.89
2019-02-23T08:32:33.125Z,987.93
2019-02-23T08:33:33.192Z,987.90
2019-02-23T08:34:33.218Z,987.90
2019-02-23T08:35:33.263Z,987.95
2019-02-23T08:36:33.317Z,987.93
2019-02-23T08:37:33.402Z,987.95
2019-02-23T08:38:33.422Z,987.95
2019-02-23T08:39:33.451Z,987.98
2019-02-23T08:40:33.539Z,987.94
2019-02-23T08:41:33.552Z,987.87
2019-02-23T08:42:33.597Z,987.86
2019-02-23T08:43:33.665Z,987.94
2019-02-23T08:44:33.711Z,987.97
2019-02-23T08:45:33.769Z,987.95
2019-02-23T08:46:33.787Z,987.95
2019-02-23T08:47:33.842Z,987.96
2019-02-23T08:48:33.931Z,987.92
2019-02-23T08:49:33.935Z,987.93
2019-02-23T08:50:33.982Z,987.90
2019-02-23T08:51:34.030Z,987.92
2019-02-23T08:52:34.076Z,987.91
2019-02-23T08:53:34.141Z,987.96
2019-02-23T08:54:34.187Z,987.96
2019-02-23T08:55:34.216Z,987.85
2019-02-23T08:56:34.274Z,987.90
2019-02-23T08:57:34.321Z,987.85
2019-02-23T08:58:34.364Z,987.96
2019-02-23T08:59:34.437Z,987.97
2019-02-23T09:00:34.462Z,987.93
2019-02-23T09:01:34.519Z,987.87
2019-02-23T09:02:34.580Z,987.80
2019-02-23T09:03:34.615Z,987.85
2019-02-23T09:04:34.687Z,987.82
2019-02-23T09:05:34.710Z,987.88
2019-02-23T09:06:34.754Z,987.83
2019-02-23T09:07:34.810Z,987.88
2019-02-23T09:08:34.859Z,987.85
2019-02-23T09:09:34.915Z,987.82
2019-02-23T09:10:34.945Z,987.83
2019-02-23T09:11:35.024Z,987.87
2019-02-23T09:12:35.052Z,987.88
2019-02-23T09:13:35.091Z,987.87
2019-02-23T09:14:35.149Z,987.89
2019-02-23T09:15:35.192Z,987.81
2019-02-23T09:16:35.262Z,987.89
2019-02-23T09:17:35.317Z,987.90
2019-02-23T09:18:35.466Z,987.87
2019-02-23T09:19:35.387Z,987.89
2019-02-23T09:20:35.472Z,987.89
2019-02-23T09:21:35.497Z,987.92
2019-02-23T09:22:35.536Z,987.92
2019-02-23T09:23:35.594Z,987.92
2019-02-23T09:24:35.646Z,987.88
2019-02-23T09:25:35.705Z,987.89
2019-02-23T09:26:35.734Z,987.88
2019-02-23T09:27:35.780Z,987.92
2019-02-23T09:28:35.831Z,987.95
2019-02-23T09:29:35.887Z,988.01
2019-02-23T09:30:35.948Z,987.99
2019-02-23T09:31:35.990Z,988.04
2019-02-23T09:32:36.035Z,988.00
2019-02-23T09:33:36.086Z,988.02
2019-02-23T09:34:36.126Z,988.03
2019-02-23T09:35:36.202Z,988.04
2019-02-23T09:36:36.380Z,988.04
2019-02-23T09:37:36.299Z,988.02
2019-02-23T09:38:36.325Z,988.00
2019-02-23T09:39:36.375Z,988.01
2019-02-23T09:40:36.424Z,988.00
2019-02-23T09:41:36.500Z,988.08
2019-02-23T09:42:36.540Z,988.09
2019-02-23T09:43:36.701Z,988.12
2019-02-23T09:44:36.637Z,988.10
2019-02-23T09:45:36.691Z,988.08
2019-02-23T09:46:36.741Z,988.12
2019-02-23T09:47:36.774Z,988.13
2019-02-23T09:48:36.829Z,988.16
2019-02-23T09:49:36.869Z,988.19
2019-02-23T09:50:36.997Z,988.14
2019-02-23T09:51:36.989Z,988.09
2019-02-23T09:52:37.017Z,988.17
2019-02-23T09:53:37.075Z,988.18
2019-02-23T09:54:37.129Z,988.19
2019-02-23T09:55:37.172Z,988.13
2019-02-23T09:56:37.243Z,988.08
2019-02-23T09:57:37.291Z,988.06
2019-02-23T09:58:37.318Z,988.06
2019-02-23T09:59:39.928Z,988.05
2019-02-23T10:00:37.447Z,988.10
2019-02-23T10:01:37.474Z,988.11
2019-02-23T10:02:37.546Z,988.07
2019-02-23T10:03:37.587Z,987.99
2019-02-23T10:04:37.619Z,988.02
2019-02-23T10:05:38.327Z,987.99
2019-02-23T10:06:37.803Z,987.94
2019-02-23T10:07:37.795Z,987.93
2019-02-23T10:08:37.828Z,987.98
2019-02-23T10:09:37.870Z,987.95
2019-02-23T10:10:37.929Z,987.95
2019-02-23T10:11:37.968Z,987.92
2019-02-23T10:12:38.046Z,987.96
2019-02-23T10:13:38.086Z,987.95
2019-02-23T10:14:38.132Z,987.95
2019-02-23T10:15:38.179Z,987.96
2019-02-23T10:16:38.217Z,987.95
2019-02-23T10:17:38.296Z,987.93
2019-02-23T10:18:38.347Z,987.95
2019-02-23T10:19:38.382Z,987.99
2019-02-23T10:20:38.419Z,988.02
2019-02-23T10:21:38.469Z,988.01
2019-02-23T10:22:39.602Z,988.01
2019-02-23T10:23:38.606Z,988.06
2019-02-23T10:24:38.632Z,988.11
2019-02-23T10:25:38.680Z,988.16
2019-02-23T10:26:38.719Z,988.11
2019-02-23T10:27:38.777Z,988.15
2019-02-23T10:28:38.855Z,988.15
2019-02-23T10:29:38.870Z,988.18
2019-02-23T10:30:38.932Z,988.14
2019-02-23T10:31:39.036Z,988.16
2019-02-23T10:32:39.017Z,988.16
2019-02-23T10:33:47.326Z,988.19
2019-02-23T10:34:39.122Z,988.24
2019-02-23T10:35:39.178Z,988.21
2019-02-23T10:36:39.226Z,988.24
2019-02-23T10:37:39.277Z,988.22
2019-02-23T10:38:39.383Z,988.25
2019-02-23T10:39:39.382Z,988.23
2019-02-23T10:40:39.426Z,988.19
2019-02-23T10:41:39.484Z,988.24
2019-02-23T10:42:39.532Z,988.24
2019-02-23T10:43:39.608Z,988.15
2019-02-23T10:44:39.635Z,988.15
2019-02-23T10:45:39.685Z,988.02
2019-02-23T10:46:39.729Z,987.95
2019-02-23T10:47:39.803Z,987.92
2019-02-23T10:48:39.856Z,987.83
2019-02-23T10:49:39.902Z,987.80
2019-02-23T10:50:39.936Z,987.78
2019-02-23T10:51:39.990Z,987.76
2019-02-23T10:52:40.036Z,987.72
2019-02-23T10:53:40.085Z,987.81
2019-02-23T10:54:40.182Z,987.79
2019-02-23T10:55:40.197Z,987.77
2019-02-23T10:56:40.335Z,987.84
2019-02-23T10:57:40.291Z,987.87
2019-02-23T10:58:40.341Z,987.85
2019-02-23T10:59:40.429Z,987.84
2019-02-23T11:00:40.439Z,987.87
2019-02-23T11:01:40.490Z,987.85
2019-02-23T11:02:40.549Z,987.84
2019-02-23T11:03:40.591Z,987.85
2019-02-23T11:04:40.675Z,987.83
2019-02-23T11:05:40.701Z,987.81
2019-02-23T11:06:40.750Z,987.81
2019-02-23T11:07:40.808Z,987.85
2019-02-23T11:08:40.861Z,987.88
2019-02-23T11:09:40.930Z,987.90
2019-02-23T11:10:40.961Z,987.83
2019-02-23T11:11:41.016Z,987.83
2019-02-23T11:12:41.108Z,987.86
2019-02-23T11:13:41.116Z,987.87
2019-02-23T11:14:41.160Z,987.82
2019-02-23T11:15:41.222Z,987.88
2019-02-23T11:16:41.251Z,987.87
2019-02-23T11:17:41.305Z,987.87
2019-02-23T11:18:41.369Z,987.87
2019-02-23T11:19:41.436Z,987.88
2019-02-23T11:20:41.477Z,987.84
2019-02-23T11:21:41.531Z,987.86
2019-02-23T11:22:41.559Z,987.89
2019-02-23T11:23:44.463Z,987.79
2019-02-23T11:24:41.659Z,987.86
2019-02-23T11:25:41.738Z,987.75
2019-02-23T11:26:41.763Z,987.81
2019-02-23T11:27:41.814Z,987.79
2019-02-23T11:28:41.872Z,987.79
2019-02-23T11:29:41.939Z,987.84
2019-02-23T11:30:41.988Z,987.83
2019-02-23T11:31:42.018Z,987.85
2019-02-23T11:32:42.072Z,987.90
2019-02-23T11:33:42.120Z,987.97
2019-02-23T11:34:42.180Z,987.92
2019-02-23T11:35:42.251Z,987.92
2019-02-23T11:36:42.280Z,987.95
2019-02-23T11:37:42.433Z,987.91
2019-02-23T11:38:42.379Z,987.85
2019-02-23T11:39:42.437Z,987.93
2019-02-23T11:40:42.501Z,987.84
2019-02-23T11:41:42.542Z,987.87
2019-02-23T11:42:42.587Z,987.83
2019-02-23T11:43:42.658Z,987.73
2019-02-23T11:44:42.704Z,987.86
2019-02-23T11:45:42.772Z,987.84
2019-02-23T11:46:59.370Z,987.88
2019-02-23T11:47:42.836Z,987.90
2019-02-23T11:48:42.904Z,987.79
2019-02-23T11:49:42.947Z,987.82
2019-02-23T11:50:43.024Z,987.81
2019-02-23T11:51:43.050Z,987.76
2019-02-23T11:52:43.103Z,987.69
2019-02-23T11:53:43.154Z,987.63
2019-02-23T11:54:44.205Z,987.66
2019-02-23T11:55:43.327Z,987.66
2019-02-23T11:56:43.339Z,987.67
2019-02-23T11:57:43.348Z,987.62
2019-02-23T11:58:43.401Z,987.56
2019-02-23T11:59:43.466Z,987.52
2019-02-23T12:00:43.516Z,987.50
2019-02-23T12:01:43.587Z,987.54
2019-02-23T12:02:52.127Z,987.48
2019-02-23T12:03:43.658Z,987.46
2019-02-23T12:04:43.855Z,987.44
2019-02-23T12:05:43.785Z,987.51
2019-02-23T12:06:43.852Z,987.45
2019-02-23T12:07:43.867Z,987.41
2019-02-23T12:08:43.917Z,987.47
2019-02-23T12:09:43.968Z,987.42
2019-02-23T12:10:44.023Z,987.43
2019-02-23T12:11:44.192Z,987.37
2019-02-23T12:12:44.123Z,987.32
2019-02-23T12:13:44.174Z,987.35
2019-02-23T12:14:44.241Z,987.32
2019-02-23T12:15:44.278Z,987.24
2019-02-23T12:16:44.358Z,987.20
2019-02-23T12:17:44.385Z,987.18
2019-02-23T12:18:44.451Z,987.17
2019-02-23T12:19:44.490Z,987.13
2019-02-23T12:20:44.543Z,987.13
2019-02-23T12:21:44.636Z,987.10
2019-02-23T12:22:44.637Z,987.05
2019-02-23T12:23:44.702Z,987.08
2019-02-23T12:24:44.752Z,987.06
2019-02-23T12:25:44.796Z,987.02
2019-02-23T12:26:44.864Z,987.06
2019-02-23T12:27:44.919Z,987.02
2019-02-23T12:28:44.956Z,986.99